JAF1BH GMMX-EBBR
Flight info
| Callsign | JAF1BH |
|---|---|
| Flight time | N/A |
| Altitude | 38000 |
| Route | OBOGA UG850 VALBA UZ801 TOLSI UG5 KORIS DCT SVL DCT HIJ DCT RUSEM DCT SOTUK DCT USOKO DCT TLD DCT SIE DCT EDIGO DCT DGO L176 LUSEM DCT LULUT DCT ADABI DCT BOKNO DCT DEVRO DCT VANAD DCT PIWIZ DCT VADOM DCT BAMES DCT PODEM DCT BAZOS/N0435F340 DCT BELDI DCT VEKIN Z173 ARVOL |
| Aircraft | B38M/M-SDE1FGHILORVWXY/HB1 |
Departure
| Time | 2026-04-28 17:52 |
|---|---|
| Airport | Marrakesh Menara Airport (GMMX) |
Arrival
| Time | N/A |
|---|---|
| Airport | Brussels Airport (EBBR) |
| Time | Latitude | Longitude | Altitude | Speed | Heading |
|---|---|---|---|---|---|
| 2026-04-28 17:27 | 31.60202 | -8.02297 | 1552 ft | 0 kts | 275° |
| 2026-04-28 17:37 | 31.60202 | -8.02292 | 1552 ft | 4 kts | 276° |
| 2026-04-28 17:37 | 31.60197 | -8.02260 | 1552 ft | 4 kts | 284° |
| 2026-04-28 17:38 | 31.60188 | -8.02232 | 1552 ft | 4 kts | 304° |
| 2026-04-28 17:38 | 31.60170 | -8.02214 | 1552 ft | 4 kts | 356° |
| 2026-04-28 17:38 | 31.60165 | -8.02214 | 1552 ft | 1 kts | 6° |
| 2026-04-28 17:41 | 31.60175 | -8.02213 | 1552 ft | 3 kts | 6° |
| 2026-04-28 17:41 | 31.60201 | -8.02209 | 1552 ft | 5 kts | 6° |
| 2026-04-28 17:41 | 31.60243 | -8.02204 | 1552 ft | 7 kts | 5° |
| 2026-04-28 17:42 | 31.60296 | -8.02202 | 1552 ft | 9 kts | 5° |
| 2026-04-28 17:42 | 31.60340 | -8.02197 | 1552 ft | 10 kts | 5° |
| 2026-04-28 17:42 | 31.60403 | -8.02173 | 1551 ft | 8 kts | 17° |
| 2026-04-28 17:42 | 31.60452 | -8.02164 | 1551 ft | 0 kts | 7° |
| 2026-04-28 17:49 | 31.60455 | -8.02164 | 1551 ft | 2 kts | 6° |
| 2026-04-28 17:50 | 31.60477 | -8.02161 | 1551 ft | 5 kts | 6° |
| 2026-04-28 17:50 | 31.60524 | -8.02156 | 1551 ft | 8 kts | 359° |
| 2026-04-28 17:50 | 31.60563 | -8.02208 | 1552 ft | 10 kts | 281° |
| 2026-04-28 17:50 | 31.60568 | -8.02249 | 1552 ft | 2 kts | 276° |
| 2026-04-28 17:51 | 31.60569 | -8.02265 | 1552 ft | 7 kts | 276° |
| 2026-04-28 17:51 | 31.60591 | -8.02502 | 1551 ft | 65 kts | 275° |
| 2026-04-28 17:51 | 31.60662 | -8.03312 | 1547 ft | 133 kts | 275° |
| 2026-04-28 17:51 | 31.60760 | -8.04590 | 1694 ft | 172 kts | 277° |
| 2026-04-28 17:52 | 31.60954 | -8.06003 | 2346 ft | 177 kts | 278° |
| 2026-04-28 17:52 | 31.61138 | -8.07427 | 2625 ft | 176 kts | 279° |
| 2026-04-28 17:52 | 31.61420 | -8.10408 | 3785 ft | 199 kts | 274° |
| 2026-04-28 17:53 | 31.61523 | -8.12108 | 4251 ft | 220 kts | 275° |
| 2026-04-28 17:53 | 31.61656 | -8.13980 | 4715 ft | 240 kts | 275° |
| 2026-04-28 17:53 | 31.61888 | -8.15948 | 5376 ft | 245 kts | 286° |
| 2026-04-28 17:53 | 31.62766 | -8.17647 | 6149 ft | 250 kts | 319° |
| 2026-04-28 17:54 | 31.64287 | -8.18580 | 7062 ft | 250 kts | 347° |
| 2026-04-28 17:54 | 31.66039 | -8.18500 | 7837 ft | 261 kts | 19° |
| 2026-04-28 17:54 | 31.67547 | -8.17345 | 8713 ft | 264 kts | 50° |